createdAt,value
2022-08-03T00:00:25.805Z,26.10
2022-08-03T00:02:52.684Z,26.00
2022-08-03T00:05:19.587Z,26.00
2022-08-03T00:07:46.355Z,26.00
2022-08-03T00:10:15.319Z,26.00
2022-08-03T00:12:42.107Z,26.00
2022-08-03T00:15:11.092Z,25.90
2022-08-03T00:17:52.404Z,25.90
2022-08-03T00:20:19.931Z,25.90
2022-08-03T00:22:46.719Z,25.90
2022-08-03T00:25:13.485Z,25.90
2022-08-03T00:27:40.212Z,25.90
2022-08-03T00:30:08.230Z,25.90
2022-08-03T00:32:34.964Z,25.90
2022-08-03T00:35:08.063Z,25.90
2022-08-03T00:37:40.783Z,25.90
2022-08-03T00:40:13.356Z,25.90
2022-08-03T00:42:48.026Z,25.90
2022-08-03T00:45:14.820Z,25.90
2022-08-03T00:47:41.557Z,25.90
2022-08-03T00:50:08.692Z,25.90
2022-08-03T00:52:35.782Z,25.90
2022-08-03T00:55:03.995Z,25.80
2022-08-03T00:57:32.238Z,25.80
2022-08-03T01:00:02.868Z,25.80
2022-08-03T01:02:29.669Z,25.80
2022-08-03T01:04:56.576Z,25.80
2022-08-03T01:08:05.351Z,25.80
2022-08-03T01:11:08.479Z,25.80
2022-08-03T01:14:04.611Z,25.80
2022-08-03T01:17:08.028Z,25.70
2022-08-03T01:20:13.611Z,25.70
2022-08-03T01:23:07.866Z,25.70
2022-08-03T01:25:40.683Z,25.60
2022-08-03T01:28:19.539Z,25.60
2022-08-03T01:30:47.874Z,25.50
2022-08-03T01:33:19.907Z,25.50
2022-08-03T01:35:54.240Z,25.50
2022-08-03T01:38:29.367Z,25.40
2022-08-03T01:40:57.781Z,25.50
2022-08-03T01:43:55.357Z,25.40
2022-08-03T01:46:18.912Z,25.40
2022-08-03T01:48:48.767Z,25.40
2022-08-03T01:51:18.403Z,25.40
2022-08-03T01:53:45.773Z,25.40
2022-08-03T01:56:15.138Z,25.40
2022-08-03T01:58:44.049Z,25.40
2022-08-03T02:01:13.570Z,25.40
2022-08-03T02:04:00.031Z,25.30
2022-08-03T02:07:00.008Z,25.40
2022-08-03T02:09:20.983Z,25.40
2022-08-03T02:11:49.220Z,25.30
2022-08-03T02:14:17.007Z,25.30
2022-08-03T02:16:45.780Z,25.30
2022-08-03T02:19:13.611Z,25.30
2022-08-03T02:21:57.272Z,25.30
2022-08-03T02:24:28.865Z,25.20
2022-08-03T02:26:57.222Z,25.20
2022-08-03T02:29:39.652Z,25.20
2022-08-03T02:32:13.367Z,25.10
2022-08-03T02:34:44.383Z,25.20
2022-08-03T02:37:13.033Z,25.10
2022-08-03T02:39:42.834Z,25.10
2022-08-03T02:42:13.731Z,25.10
2022-08-03T02:44:47.573Z,25.10
2022-08-03T02:47:15.754Z,25.10
2022-08-03T02:49:51.401Z,25.10
2022-08-03T02:52:23.192Z,25.10
2022-08-03T02:54:55.010Z,25.00
2022-08-03T02:57:23.226Z,25.00
2022-08-03T02:59:51.587Z,25.00
2022-08-03T03:02:19.522Z,25.00
2022-08-03T03:05:50.791Z,25.00
2022-08-03T03:07:45.420Z,25.10
2022-08-03T03:10:23.454Z,25.00
2022-08-03T03:12:57.962Z,25.00
2022-08-03T03:15:27.005Z,25.00
2022-08-03T03:17:54.538Z,25.00
2022-08-03T03:20:26.711Z,25.00
2022-08-03T03:22:58.501Z,24.90
2022-08-03T03:25:25.341Z,24.90
2022-08-03T03:27:52.397Z,24.90
2022-08-03T03:30:19.300Z,24.90
2022-08-03T03:32:46.081Z,24.90
2022-08-03T03:35:14.024Z,24.90
2022-08-03T03:37:40.870Z,24.90
2022-08-03T03:40:09.095Z,24.80
2022-08-03T03:42:35.985Z,24.80
2022-08-03T03:45:07.896Z,24.80
2022-08-03T03:47:35.616Z,24.80
2022-08-03T03:50:05.887Z,24.80
2022-08-03T03:52:33.857Z,24.80
2022-08-03T03:55:01.669Z,24.80
2022-08-03T03:57:29.241Z,24.70
2022-08-03T03:59:56.041Z,24.70
2022-08-03T04:02:22.805Z,24.70
2022-08-03T04:05:08.387Z,24.70
2022-08-03T04:08:28.162Z,24.70
2022-08-03T04:11:02.957Z,24.70
2022-08-03T04:13:37.605Z,24.60
2022-08-03T04:16:07.236Z,24.60
2022-08-03T04:18:36.257Z,24.60
2022-08-03T04:21:05.524Z,24.60
2022-08-03T04:23:35.753Z,24.60
2022-08-03T04:26:10.127Z,24.60
2022-08-03T04:28:39.353Z,24.60
2022-08-03T04:31:07.212Z,24.60
2022-08-03T04:33:35.501Z,24.60
2022-08-03T04:36:07.315Z,24.60
2022-08-03T04:38:42.191Z,24.60
2022-08-03T04:41:09.293Z,24.70
2022-08-03T04:43:39.558Z,24.70
2022-08-03T04:46:07.818Z,24.70
2022-08-03T04:48:35.083Z,24.70
2022-08-03T04:51:04.305Z,24.70
2022-08-03T04:53:31.261Z,24.70
2022-08-03T04:56:05.593Z,24.70
2022-08-03T04:58:32.833Z,24.70
2022-08-03T05:00:59.744Z,24.80
2022-08-03T05:03:26.540Z,24.80
2022-08-03T05:06:01.715Z,24.80
2022-08-03T05:08:29.812Z,24.80
2022-08-03T05:10:59.273Z,24.80
2022-08-03T05:13:26.473Z,24.90
2022-08-03T05:15:53.380Z,24.90
2022-08-03T05:18:20.144Z,24.90
2022-08-03T05:20:46.920Z,24.90
2022-08-03T05:23:13.695Z,24.90
2022-08-03T05:25:40.454Z,24.90
2022-08-03T05:28:16.738Z,24.90
2022-08-03T05:30:43.560Z,24.90
2022-08-03T05:33:11.201Z,25.00
2022-08-03T05:35:57.265Z,25.00
2022-08-03T05:38:33.176Z,25.00
2022-08-03T05:41:20.606Z,25.10
2022-08-03T05:43:50.195Z,25.10
2022-08-03T05:46:16.937Z,25.20
2022-08-03T05:48:43.931Z,25.30
2022-08-03T05:51:13.716Z,25.20
2022-08-03T05:53:41.900Z,25.30
2022-08-03T05:56:13.969Z,25.30
2022-08-03T05:58:47.205Z,25.40
2022-08-03T06:01:15.729Z,25.40
2022-08-03T06:03:42.688Z,25.60
2022-08-03T06:06:09.506Z,25.60
2022-08-03T06:08:36.367Z,25.70
2022-08-03T06:11:04.039Z,25.80
2022-08-03T06:13:30.865Z,25.90
2022-08-03T06:15:58.021Z,25.90
2022-08-03T06:18:24.780Z,26.00
2022-08-03T06:20:52.508Z,26.10
2022-08-03T06:23:19.583Z,26.10
2022-08-03T06:25:47.399Z,26.20
2022-08-03T06:31:02.529Z,26.20
2022-08-03T06:33:48.509Z,26.30
2022-08-03T06:36:16.252Z,26.40
2022-08-03T06:38:43.019Z,26.40
2022-08-03T06:41:09.787Z,26.40
2022-08-03T06:43:38.045Z,26.50
2022-08-03T06:46:24.293Z,26.60
2022-08-03T06:48:51.059Z,26.80
2022-08-03T06:51:17.778Z,26.90
2022-08-03T06:53:44.557Z,27.00
2022-08-03T06:56:11.324Z,27.10
2022-08-03T06:58:38.315Z,27.10
2022-08-03T07:01:05.121Z,27.20
2022-08-03T07:03:31.921Z,27.20
2022-08-03T07:05:59.878Z,27.30
2022-08-03T07:08:33.818Z,27.30
2022-08-03T07:11:01.489Z,27.30
2022-08-03T07:13:28.309Z,27.30
2022-08-03T07:15:56.323Z,27.30
2022-08-03T07:18:27.555Z,27.30
2022-08-03T07:20:57.835Z,27.30
2022-08-03T07:23:25.493Z,27.30
2022-08-03T07:25:52.582Z,27.40
2022-08-03T07:28:20.096Z,27.50
2022-08-03T07:30:47.229Z,27.60
2022-08-03T07:33:15.206Z,27.60
2022-08-03T07:35:42.079Z,27.70
2022-08-03T07:38:08.875Z,27.80
2022-08-03T07:40:35.695Z,27.90
2022-08-03T07:43:03.583Z,28.00
2022-08-03T07:45:32.243Z,28.10
2022-08-03T07:47:59.397Z,28.10
2022-08-03T07:50:26.691Z,28.10
2022-08-03T07:52:55.900Z,28.10
2022-08-03T07:55:25.810Z,28.10
2022-08-03T07:58:16.530Z,28.20
2022-08-03T08:00:46.135Z,28.40
2022-08-03T08:03:13.369Z,28.50
2022-08-03T08:05:40.308Z,28.60
2022-08-03T08:08:07.279Z,28.60
2022-08-03T08:10:35.052Z,28.60
2022-08-03T08:13:02.172Z,28.70
2022-08-03T08:15:29.068Z,28.80
2022-08-03T08:17:57.835Z,29.00
2022-08-03T08:20:30.761Z,29.00
2022-08-03T08:23:22.930Z,29.10
2022-08-03T08:25:52.880Z,29.10
2022-08-03T08:28:32.370Z,29.20
2022-08-03T08:31:00.695Z,29.30
2022-08-03T08:33:37.414Z,29.30
2022-08-03T08:36:15.056Z,29.40
2022-08-03T08:38:44.373Z,29.50
2022-08-03T08:41:12.751Z,29.60
2022-08-03T08:43:39.527Z,29.70
2022-08-03T08:46:09.756Z,29.90
2022-08-03T08:48:40.974Z,29.90
2022-08-03T08:51:11.333Z,30.00
2022-08-03T08:53:40.613Z,30.00
2022-08-03T08:56:10.233Z,30.10
2022-08-03T08:58:46.999Z,30.20
2022-08-03T09:01:13.898Z,30.30
2022-08-03T09:03:41.265Z,30.40
2022-08-03T09:06:07.987Z,30.40
2022-08-03T09:08:34.865Z,30.60
2022-08-03T09:11:01.798Z,30.70
2022-08-03T09:13:29.380Z,30.80
2022-08-03T09:16:17.478Z,30.90
2022-08-03T09:18:47.108Z,31.00
2022-08-03T09:21:31.099Z,31.20
2022-08-03T09:24:02.834Z,31.30
2022-08-03T09:26:31.771Z,31.50
2022-08-03T09:29:07.165Z,31.60
2022-08-03T09:31:43.712Z,31.60
2022-08-03T09:34:13.106Z,31.60
2022-08-03T09:36:45.859Z,31.60
2022-08-03T09:39:18.484Z,31.60
2022-08-03T09:41:48.450Z,31.70
2022-08-03T09:44:24.418Z,31.90
2022-08-03T09:46:56.885Z,32.00
2022-08-03T09:49:25.044Z,32.20
2022-08-03T09:52:33.647Z,32.60
2022-08-03T09:54:40.845Z,32.80
2022-08-03T09:57:07.992Z,32.90
2022-08-03T09:59:35.868Z,33.10
2022-08-03T10:02:24.227Z,33.20
2022-08-03T10:04:53.165Z,33.20
2022-08-03T10:07:24.792Z,33.40
2022-08-03T10:10:30.192Z,33.40
2022-08-03T10:12:50.489Z,33.50
2022-08-03T10:16:21.601Z,33.60
2022-08-03T10:18:06.810Z,33.70
2022-08-03T10:20:44.815Z,33.80
2022-08-03T10:23:13.981Z,33.90
2022-08-03T10:25:43.750Z,34.00
2022-08-03T10:28:15.216Z,34.20
2022-08-03T10:30:47.459Z,34.40
2022-08-03T10:33:51.983Z,34.50
2022-08-03T10:36:22.993Z,34.70
2022-08-03T10:38:56.472Z,35.00
2022-08-03T10:41:30.913Z,35.20
2022-08-03T10:44:08.043Z,35.40
2022-08-03T10:46:41.417Z,35.50
2022-08-03T10:49:15.890Z,35.80
2022-08-03T10:51:48.035Z,36.10
2022-08-03T10:55:00.834Z,36.60
2022-08-03T10:57:56.236Z,37.00
2022-08-03T11:00:27.887Z,37.40
2022-08-03T11:03:09.155Z,37.90
2022-08-03T11:05:44.803Z,38.60
2022-08-03T11:08:40.257Z,39.60
2022-08-03T11:11:19.174Z,40.70
2022-08-03T11:14:05.794Z,41.90
2022-08-03T11:16:35.556Z,43.00
2022-08-03T11:19:05.121Z,44.00
2022-08-03T11:21:50.750Z,44.80
2022-08-03T11:24:36.312Z,45.40
2022-08-03T11:27:18.393Z,46.20
2022-08-03T11:30:06.933Z,46.80
2022-08-03T11:32:40.120Z,47.50
2022-08-03T11:35:19.035Z,48.00
2022-08-03T11:38:03.311Z,48.50
2022-08-03T11:40:44.855Z,48.80
2022-08-03T11:43:31.362Z,49.60
2022-08-03T11:46:06.373Z,49.80
2022-08-03T11:48:44.398Z,49.90
2022-08-03T11:51:25.942Z,50.10
2022-08-03T11:53:54.509Z,50.40
2022-08-03T11:56:21.335Z,50.90
2022-08-03T11:59:11.320Z,51.30
2022-08-03T12:01:37.596Z,51.60
2022-08-03T12:04:05.308Z,51.80
2022-08-03T12:06:52.279Z,51.80
2022-08-03T12:09:21.377Z,52.00
2022-08-03T12:12:00.582Z,52.50
2022-08-03T12:14:48.890Z,52.70
2022-08-03T12:17:16.185Z,53.10
2022-08-03T12:19:43.510Z,53.30
2022-08-03T12:22:10.410Z,53.60
2022-08-03T12:24:47.874Z,54.00
2022-08-03T12:27:25.143Z,54.30
2022-08-03T12:29:58.773Z,54.50
2022-08-03T12:32:28.221Z,54.90
2022-08-03T12:35:01.090Z,54.70
2022-08-03T12:37:29.189Z,54.60
2022-08-03T12:40:07.916Z,54.70
2022-08-03T12:42:39.311Z,54.80
2022-08-03T12:45:26.742Z,54.80
2022-08-03T12:48:01.232Z,54.60
2022-08-03T12:50:36.096Z,54.70
2022-08-03T12:53:07.885Z,54.80
2022-08-03T12:55:57.766Z,54.70
2022-08-03T12:58:36.071Z,54.80
2022-08-03T13:01:09.517Z,54.80
2022-08-03T13:03:55.061Z,54.60
2022-08-03T13:06:24.217Z,54.60
2022-08-03T13:09:03.691Z,54.40
2022-08-03T13:11:55.929Z,53.60
2022-08-03T13:14:20.044Z,53.20
2022-08-03T13:16:48.756Z,52.80
2022-08-03T13:19:16.082Z,53.00
2022-08-03T13:22:01.616Z,53.00
2022-08-03T13:24:30.634Z,52.50
2022-08-03T13:26:59.184Z,51.90
2022-08-03T13:29:25.997Z,50.90
2022-08-03T13:31:52.781Z,49.80
2022-08-03T13:34:23.459Z,49.10
2022-08-03T13:37:09.405Z,49.50
2022-08-03T13:39:57.955Z,50.10
2022-08-03T13:42:23.929Z,50.20
2022-08-03T13:44:50.789Z,50.30
2022-08-03T13:47:17.715Z,50.00
2022-08-03T13:49:54.201Z,49.30
2022-08-03T13:52:27.791Z,49.20
2022-08-03T13:54:54.755Z,49.50
2022-08-03T13:58:03.295Z,49.30
2022-08-03T14:00:09.243Z,48.90
2022-08-03T14:02:36.128Z,48.20
2022-08-03T14:05:02.935Z,47.60
2022-08-03T14:07:29.713Z,47.00
2022-08-03T14:09:56.894Z,47.00
2022-08-03T14:12:23.683Z,47.10
2022-08-03T14:14:50.420Z,46.80
2022-08-03T14:17:17.243Z,46.50
2022-08-03T14:19:53.005Z,46.20
2022-08-03T14:22:21.263Z,45.90
2022-08-03T14:24:49.441Z,45.60
2022-08-03T14:27:16.758Z,45.00
2022-08-03T14:29:43.505Z,44.40
2022-08-03T14:32:13.338Z,43.90
2022-08-03T14:34:41.123Z,43.30
2022-08-03T14:37:08.138Z,42.30
2022-08-03T14:42:21.884Z,41.00
2022-08-03T14:44:48.631Z,40.70
2022-08-03T14:47:15.575Z,40.60
2022-08-03T14:50:31.517Z,40.20
2022-08-03T14:52:29.419Z,39.80
2022-08-03T14:54:56.288Z,39.50
2022-08-03T14:57:23.176Z,39.30
2022-08-03T14:59:55.952Z,39.10
2022-08-03T15:02:25.194Z,39.00
2022-08-03T15:04:52.624Z,38.90
2022-08-03T15:07:20.734Z,38.70
2022-08-03T15:09:47.851Z,38.70
2022-08-03T15:12:14.661Z,38.70
2022-08-03T15:14:41.487Z,38.50
2022-08-03T15:17:08.355Z,38.30
2022-08-03T15:20:00.510Z,38.10
2022-08-03T15:22:24.952Z,37.90
2022-08-03T15:25:02.474Z,37.70
2022-08-03T15:27:29.348Z,37.50
2022-08-03T15:30:05.855Z,37.30
2022-08-03T15:32:36.463Z,37.20
2022-08-03T15:35:03.467Z,37.10
2022-08-03T15:37:30.218Z,36.90
2022-08-03T15:39:58.456Z,36.90
2022-08-03T15:42:28.691Z,36.70
2022-08-03T15:44:55.540Z,36.60
2022-08-03T15:47:22.633Z,36.50
2022-08-03T15:49:49.633Z,36.40
2022-08-03T15:52:16.375Z,36.20
2022-08-03T15:54:43.220Z,36.20
2022-08-03T15:57:09.998Z,36.10
2022-08-03T15:59:36.876Z,36.00
2022-08-03T16:02:03.952Z,35.90
2022-08-03T16:04:30.884Z,35.80
2022-08-03T16:06:57.680Z,35.70
2022-08-03T16:09:43.011Z,35.60
2022-08-03T16:12:13.292Z,35.50
2022-08-03T16:14:52.513Z,35.50
2022-08-03T16:17:21.610Z,35.40
2022-08-03T16:19:48.808Z,35.50
2022-08-03T16:22:17.492Z,35.40
2022-08-03T16:24:46.834Z,35.40
2022-08-03T16:27:26.355Z,35.40
2022-08-03T16:30:00.454Z,35.40
2022-08-03T16:32:27.256Z,35.30
2022-08-03T16:34:53.999Z,35.30
2022-08-03T16:37:38.220Z,35.10
2022-08-03T16:40:09.212Z,35.10
2022-08-03T16:42:44.452Z,35.10
2022-08-03T16:45:11.387Z,35.10
2022-08-03T16:47:38.222Z,35.10
2022-08-03T16:50:14.251Z,35.00
2022-08-03T16:52:46.971Z,35.10
2022-08-03T16:55:15.900Z,35.10
2022-08-03T16:57:59.088Z,35.10
2022-08-03T17:00:32.901Z,35.00
2022-08-03T17:03:04.365Z,35.00
2022-08-03T17:05:43.742Z,35.00
2022-08-03T17:08:14.678Z,35.00
2022-08-03T17:10:45.594Z,35.00
2022-08-03T17:13:22.074Z,35.00
2022-08-03T17:15:58.368Z,35.00
2022-08-03T17:18:34.147Z,34.90
2022-08-03T17:21:06.710Z,34.80
2022-08-03T17:23:40.836Z,34.80
2022-08-03T17:26:21.208Z,34.80
2022-08-03T17:28:56.478Z,34.70
2022-08-03T17:31:31.725Z,34.70
2022-08-03T17:34:01.405Z,34.60
2022-08-03T17:36:54.051Z,34.50
2022-08-03T17:39:17.250Z,34.50
2022-08-03T17:41:50.091Z,34.40
2022-08-03T17:44:32.014Z,34.40
2022-08-03T17:47:06.517Z,34.40
2022-08-03T17:49:39.842Z,34.40
2022-08-03T17:52:27.269Z,34.40
2022-08-03T17:55:54.994Z,34.40
2022-08-03T17:58:02.644Z,34.40
2022-08-03T18:00:51.814Z,34.40
2022-08-03T18:03:58.698Z,34.30
2022-08-03T18:06:30.435Z,34.20
2022-08-03T18:09:04.758Z,34.20
2022-08-03T18:11:35.484Z,34.10
2022-08-03T18:14:31.380Z,34.10
2022-08-03T18:17:10.374Z,33.90
2022-08-03T18:20:02.579Z,33.90
2022-08-03T18:22:27.251Z,33.80
2022-08-03T18:24:59.369Z,33.70
2022-08-03T18:27:46.019Z,33.60
2022-08-03T18:30:15.373Z,33.50
2022-08-03T18:32:43.840Z,33.40
2022-08-03T18:35:53.955Z,33.40
2022-08-03T18:38:18.766Z,33.40
2022-08-03T18:40:48.374Z,33.30
2022-08-03T18:43:17.562Z,33.20
2022-08-03T18:45:57.425Z,33.10
2022-08-03T18:48:51.379Z,33.00
2022-08-03T18:51:28.447Z,33.00
2022-08-03T18:54:55.712Z,32.90
2022-08-03T18:57:30.346Z,32.90
2022-08-03T19:00:10.482Z,32.80
2022-08-03T19:02:50.653Z,32.70
2022-08-03T19:05:21.344Z,32.60
2022-08-03T19:08:31.453Z,32.50
2022-08-03T19:11:06.167Z,32.50
2022-08-03T19:13:44.368Z,32.40
2022-08-03T19:16:39.400Z,32.30
2022-08-03T19:19:10.681Z,32.20
2022-08-03T19:21:41.726Z,32.10
2022-08-03T19:24:10.403Z,32.10
2022-08-03T19:26:39.634Z,32.00
2022-08-03T19:29:14.887Z,31.90
2022-08-03T19:31:58.804Z,31.80
2022-08-03T19:34:29.076Z,31.70
2022-08-03T19:36:59.735Z,31.70
2022-08-03T19:39:27.080Z,31.60
2022-08-03T19:42:08.153Z,31.50
2022-08-03T19:44:46.407Z,31.40
2022-08-03T19:47:29.595Z,31.40
2022-08-03T19:50:10.466Z,31.30
2022-08-03T19:52:46.152Z,31.20
2022-08-03T19:55:14.015Z,31.10
2022-08-03T19:57:43.727Z,31.10
2022-08-03T20:00:13.837Z,31.00
2022-08-03T20:02:41.639Z,31.00
2022-08-03T20:05:15.027Z,31.00
2022-08-03T20:07:48.078Z,30.90
2022-08-03T20:10:16.620Z,30.80
2022-08-03T20:12:45.039Z,30.80
2022-08-03T20:15:12.912Z,30.70
2022-08-03T20:17:56.329Z,30.70
2022-08-03T20:20:31.144Z,30.60
2022-08-03T20:22:59.903Z,30.60
2022-08-03T20:25:38.381Z,30.50
2022-08-03T20:28:26.779Z,30.50
2022-08-03T20:30:53.973Z,30.40
2022-08-03T20:33:27.803Z,30.30
2022-08-03T20:36:07.832Z,30.30
2022-08-03T20:38:43.534Z,30.20
2022-08-03T20:41:14.438Z,30.10
2022-08-03T20:43:41.758Z,30.10
2022-08-03T20:46:33.868Z,30.00
2022-08-03T20:48:57.330Z,29.90
2022-08-03T20:51:50.603Z,29.80
2022-08-03T20:54:23.022Z,29.80
2022-08-03T20:57:03.633Z,29.70
2022-08-03T20:59:46.734Z,29.70
2022-08-03T21:02:19.855Z,29.70
2022-08-03T21:04:58.424Z,29.60
2022-08-03T21:08:05.625Z,29.60
2022-08-03T21:10:16.685Z,29.50
2022-08-03T21:13:13.426Z,29.50
2022-08-03T21:16:02.384Z,29.40
2022-08-03T21:18:35.327Z,29.40
2022-08-03T21:21:03.264Z,29.30
2022-08-03T21:23:40.257Z,29.30
2022-08-03T21:26:17.375Z,29.30
2022-08-03T21:28:46.610Z,29.20
2022-08-03T21:31:19.786Z,29.10
2022-08-03T21:34:04.228Z,29.10
2022-08-03T21:36:34.387Z,29.10
2022-08-03T21:39:02.584Z,29.00
2022-08-03T21:41:31.561Z,29.00
2022-08-03T21:43:59.772Z,29.00
2022-08-03T21:46:30.028Z,28.90
2022-08-03T21:50:07.691Z,28.90
2022-08-03T21:51:50.355Z,28.90
2022-08-03T21:54:20.076Z,28.80
2022-08-03T21:56:50.180Z,28.70
2022-08-03T21:59:19.669Z,28.70
2022-08-03T22:01:49.301Z,28.60
2022-08-03T22:04:50.786Z,28.60
2022-08-03T22:07:07.944Z,28.60
2022-08-03T22:09:35.692Z,28.60
2022-08-03T22:12:03.028Z,28.50
2022-08-03T22:14:32.810Z,28.40
2022-08-03T22:17:00.665Z,28.40
2022-08-03T22:19:30.333Z,28.40
2022-08-03T22:21:58.693Z,28.30
2022-08-03T22:24:29.129Z,28.30
2022-08-03T22:27:14.715Z,28.30
2022-08-03T22:29:43.029Z,28.30
2022-08-03T22:32:09.832Z,28.20
2022-08-03T22:34:37.807Z,28.20
2022-08-03T22:37:05.019Z,28.20
2022-08-03T22:39:32.459Z,28.10
2022-08-03T22:41:59.875Z,28.10
2022-08-03T22:44:28.008Z,28.00
2022-08-03T22:46:56.143Z,27.90
2022-08-03T22:49:23.721Z,27.90
2022-08-03T22:51:54.182Z,27.90
2022-08-03T22:54:21.897Z,27.90
2022-08-03T22:56:50.021Z,27.80
2022-08-03T22:59:38.919Z,27.80
2022-08-03T23:02:21.005Z,27.80
2022-08-03T23:04:55.593Z,27.80
2022-08-03T23:07:35.841Z,27.70
2022-08-03T23:10:06.795Z,27.70
2022-08-03T23:12:36.227Z,27.70
2022-08-03T23:15:06.850Z,27.70
2022-08-03T23:17:34.619Z,27.60
2022-08-03T23:20:26.522Z,27.60
2022-08-03T23:22:54.426Z,27.60
2022-08-03T23:25:22.048Z,27.60
2022-08-03T23:28:05.267Z,27.50
2022-08-03T23:30:37.038Z,27.50
2022-08-03T23:33:04.392Z,27.50
2022-08-03T23:36:28.468Z,27.50
2022-08-03T23:38:36.939Z,27.50
2022-08-03T23:41:05.185Z,27.40
2022-08-03T23:43:51.306Z,27.40
2022-08-03T23:46:24.099Z,27.40
2022-08-03T23:48:51.311Z,27.30
2022-08-03T23:51:32.032Z,27.20
2022-08-03T23:54:30.374Z,27.20
2022-08-03T23:57:23.013Z,27.10
2022-08-03T23:59:52.818Z,27.10
